Ninaview, Colorado
Current Conditions -  °F | °C
As of 5:53 PM on Saturday 25 Oct 2014 (Local Time) from KLHX Reporting Station
Clear Clear  
Wind Chill: 26°   Ceiling: Unl
Heat Index: 26°   Visibility: 10mi
Dew Point: -1°   Wind: 5mph
Humidity: 17%   Direction: 90°E
Pressure: 30"   Gusts: NA
Location:  37.8567°N, 103.111°W
Report Text: KLHX 252353Z AUTO 09004KT 10SM CLR 26/M01 A3000 RMK AO2 SLP115 T02611011 10294 20250 56017
Loading
Personal Weather Stations






























Interactive Weather Map
Tropical Storm Tracking
New forecast layout! Learn more

10-Day Weather Forecast

Advertisements
Track Severe Weather on mobile